Time,TemperatureF,DewpointF,PressureIn,WindDirection,WindDirectionDegrees,WindSpeedMPH,WindSpeedGustMPH,Humidity,HourlyPrecipIn,Conditions,Clouds,dailyrainin,SoftwareType,DateUTC
2013-02-09 00:00:00,27.9,21.0,30.04,South,184,6.0,6.0,75,0.00,,,0.08,Wunderground v.1.15,2013-02-09 05:00:00,
2013-02-09 00:05:00,27.9,21.3,30.03,WSW,239,6.0,6.0,76,0.00,,,0.00,Wunderground v.1.15,2013-02-09 05:05:00,
2013-02-09 00:10:00,27.8,21.5,30.04,SW,230,5.0,5.0,77,0.00,,,0.00,Wunderground v.1.15,2013-02-09 05:10:00,
2013-02-09 00:15:00,27.8,21.5,30.04,WNW,295,4.0,7.0,77,0.00,,,0.00,Wunderground v.1.15,2013-02-09 05:15:00,
2013-02-09 00:25:00,27.7,21.7,30.04,WSW,239,5.0,7.0,78,0.00,,,0.00,Wunderground v.1.15,2013-02-09 05:25:00,
2013-02-09 00:35:00,27.5,21.5,30.04,ESE,110,5.0,9.0,78,0.00,,,0.00,Wunderground v.1.15,2013-02-09 05:35:00,
2013-02-09 00:40:00,27.5,21.8,30.05,WSW,242,6.0,9.0,79,0.00,,,0.00,Wunderground v.1.15,2013-02-09 05:40:00,
2013-02-09 00:50:00,27.4,21.4,30.05,SW,235,5.0,5.0,78,0.00,,,0.00,Wunderground v.1.15,2013-02-09 05:50:00,
2013-02-09 00:55:00,27.4,22.0,30.05,North,359,3.0,5.0,80,0.00,,,0.00,Wunderground v.1.15,2013-02-09 05:55:00,
2013-02-09 01:05:00,27.4,21.7,30.05,East,91,4.0,11.0,79,0.00,,,0.00,Wunderground v.1.15,2013-02-09 06:05:00,
2013-02-09 01:15:00,27.3,21.3,30.05,SW,226,5.0,6.0,78,0.00,,,0.00,Wunderground v.1.15,2013-02-09 06:15:00,
2013-02-09 01:25:00,27.2,20.9,30.05,WNW,287,5.0,7.0,77,0.00,,,0.00,Wunderground v.1.15,2013-02-09 06:25:00,
2013-02-09 01:35:00,27.2,20.9,30.06,SW,228,6.0,12.0,77,0.00,,,0.00,Wunderground v.1.15,2013-02-09 06:35:00,
2013-02-09 01:45:00,27.2,20.9,30.07,SE,141,7.0,7.0,77,0.00,,,0.00,Wunderground v.1.15,2013-02-09 06:45:00,
2013-02-09 01:55:00,27.2,20.9,30.07,WNW,283,4.0,9.0,77,0.00,,,0.00,Wunderground v.1.15,2013-02-09 06:55:00,
2013-02-09 02:05:00,27.2,20.9,30.07,SW,218,6.0,8.0,77,0.00,,,0.00,Wunderground v.1.15,2013-02-09 07:05:00,
2013-02-09 02:15:00,27.2,20.9,30.08,WNW,287,6.0,7.0,77,0.00,,,0.00,Wunderground v.1.15,2013-02-09 07:15:00,
2013-02-09 02:25:00,27.1,20.8,30.08,SSW,197,7.0,8.0,77,0.00,,,0.00,Wunderground v.1.15,2013-02-09 07:25:00,
2013-02-09 02:35:00,27.0,21.1,30.10,NNW,337,5.0,6.0,78,0.00,,,0.00,Wunderground v.1.15,2013-02-09 07:35:00,
2013-02-09 02:40:00,27.0,21.4,30.10,SSW,211,5.0,5.0,79,0.00,,,0.00,Wunderground v.1.15,2013-02-09 07:40:00,
2013-02-09 02:50:00,26.9,21.3,30.10,SW,215,5.0,5.0,79,0.00,,,0.00,Wunderground v.1.15,2013-02-09 07:50:00,
2013-02-09 03:00:00,26.9,21.0,30.10,SSW,212,3.0,5.0,78,0.00,,,0.00,Wunderground v.1.15,2013-02-09 08:00:00,
2013-02-09 03:05:00,26.9,21.0,30.10,SW,231,5.0,7.0,78,0.00,,,0.00,Wunderground v.1.15,2013-02-09 08:05:00,
2013-02-09 03:15:00,26.8,21.2,30.11,SW,215,2.0,4.0,79,0.00,,,0.00,Wunderground v.1.15,2013-02-09 08:15:00,
2013-02-09 03:25:00,26.7,20.8,30.12,SSE,161,6.0,10.0,78,0.00,,,0.00,Wunderground v.1.15,2013-02-09 08:25:00,
2013-02-09 03:35:00,26.7,21.1,30.12,WSW,250,3.0,5.0,79,0.00,,,0.00,Wunderground v.1.15,2013-02-09 08:35:00,
2013-02-09 03:45:00,26.7,21.1,30.13,ESE,115,4.0,5.0,79,0.00,,,0.00,Wunderground v.1.15,2013-02-09 08:45:00,
2013-02-09 03:55:00,26.7,21.1,30.14,NNW,341,3.0,6.0,79,0.00,,,0.00,Wunderground v.1.15,2013-02-09 08:55:00,
2013-02-09 04:00:00,26.6,21.3,30.15,SE,137,3.0,3.0,80,0.00,,,0.00,Wunderground v.1.15,2013-02-09 09:00:00,
2013-02-09 04:05:00,26.5,21.2,30.14,SE,143,3.0,3.0,80,0.00,,,0.00,Wunderground v.1.15,2013-02-09 09:05:00,
2013-02-09 04:15:00,26.4,21.4,30.15,SW,216,2.0,8.0,81,0.00,,,0.00,Wunderground v.1.15,2013-02-09 09:15:00,
2013-02-09 04:25:00,26.5,20.9,30.15,North,354,5.0,5.0,79,0.00,,,0.00,Wunderground v.1.15,2013-02-09 09:25:00,
2013-02-09 04:30:00,26.5,20.6,30.15,WNW,287,5.0,5.0,78,0.00,,,0.00,Wunderground v.1.15,2013-02-09 09:30:00,
2013-02-09 04:40:00,26.6,20.7,30.15,SW,224,5.0,5.0,78,0.00,,,0.00,Wunderground v.1.15,2013-02-09 09:40:00,
2013-02-09 04:50:00,26.7,20.5,30.16,WNW,293,6.0,11.0,77,0.00,,,0.00,Wunderground v.1.15,2013-02-09 09:50:00,
2013-02-09 05:00:00,26.8,20.2,30.16,NW,323,7.0,10.0,76,0.00,,,0.00,Wunderground v.1.15,2013-02-09 10:00:00,
2013-02-09 05:05:00,26.8,20.6,30.16,West,262,7.0,10.0,77,0.00,,,0.00,Wunderground v.1.15,2013-02-09 10:05:00,
2013-02-09 05:15:00,26.7,20.5,30.17,NW,308,6.0,11.0,77,0.00,,,0.00,Wunderground v.1.15,2013-02-09 10:15:00,
2013-02-09 05:20:00,26.6,20.4,30.17,West,274,6.0,6.0,77,0.00,,,0.00,Wunderground v.1.15,2013-02-09 10:20:00,
2013-02-09 05:30:00,26.6,20.4,30.18,SW,230,4.0,4.0,77,0.00,,,0.00,Wunderground v.1.15,2013-02-09 10:30:00,
2013-02-09 05:40:00,26.6,20.7,30.18,SSW,206,4.0,4.0,78,0.00,,,0.00,Wunderground v.1.15,2013-02-09 10:40:00,
2013-02-09 05:50:00,26.5,20.6,30.19,ESE,119,3.0,3.0,78,0.00,,,0.00,Wunderground v.1.15,2013-02-09 10:50:00,
2013-02-09 06:00:00,26.5,20.0,30.20,NW,316,6.0,8.0,76,0.00,,,0.00,Wunderground v.1.15,2013-02-09 11:00:00,
2013-02-09 06:05:00,26.6,20.1,30.20,NW,304,6.0,19.0,76,0.00,,,0.00,Wunderground v.1.15,2013-02-09 11:05:00,
2013-02-09 06:15:00,26.6,20.1,30.20,WNW,291,6.0,7.0,76,0.00,,,0.00,Wunderground v.1.15,2013-02-09 11:15:00,
2013-02-09 06:25:00,26.6,19.7,30.21,WNW,297,5.0,17.0,75,0.00,,,0.00,Wunderground v.1.15,2013-02-09 11:25:00,
2013-02-09 06:35:00,26.6,19.4,30.22,WNW,293,8.0,10.0,74,0.00,,,0.00,Wunderground v.1.15,2013-02-09 11:35:00,
2013-02-09 06:45:00,26.5,19.3,30.22,West,260,9.0,12.0,74,0.00,,,0.00,Wunderground v.1.15,2013-02-09 11:45:00,
2013-02-09 06:55:00,26.5,19.3,30.22,NW,310,8.0,13.0,74,0.00,,,0.00,Wunderground v.1.15,2013-02-09 11:55:00,
2013-02-09 07:00:00,26.5,19.3,30.22,North,4,9.0,9.0,74,0.00,,,0.00,Wunderground v.1.15,2013-02-09 12:00:00,
2013-02-09 07:05:00,26.5,19.3,30.22,SSW,213,9.0,9.0,74,0.00,,,0.00,Wunderground v.1.15,2013-02-09 12:05:00,
2013-02-09 07:15:00,26.5,19.6,30.23,WSW,243,10.0,10.0,75,0.00,,,0.00,Wunderground v.1.15,2013-02-09 12:15:00,
2013-02-09 07:25:00,26.4,19.5,30.24,NNW,330,10.0,14.0,75,0.00,,,0.00,Wunderground v.1.15,2013-02-09 12:25:00,
2013-02-09 07:30:00,26.4,19.2,30.24,West,267,10.0,12.0,74,0.00,,,0.00,Wunderground v.1.15,2013-02-09 12:30:00,
2013-02-09 07:40:00,26.2,19.4,30.24,WSW,254,10.0,10.0,75,0.00,,,0.00,Wunderground v.1.15,2013-02-09 12:40:00,
2013-02-09 07:50:00,26.0,18.8,30.23,NNW,330,11.0,11.0,74,0.00,,,0.00,Wunderground v.1.15,2013-02-09 12:50:00,
2013-02-09 08:00:00,25.8,18.3,30.25,NNW,331,11.0,11.0,73,0.00,,,0.00,Wunderground v.1.15,2013-02-09 13:00:00,
2013-02-09 08:05:00,25.7,17.6,30.25,SSW,205,11.0,11.0,71,0.00,,,0.00,Wunderground v.1.15,2013-02-09 13:05:00,
2013-02-09 08:15:00,25.6,17.5,30.25,West,279,12.0,13.0,71,0.00,,,0.00,Wunderground v.1.15,2013-02-09 13:15:00,
2013-02-09 08:20:00,25.5,17.7,30.26,NW,311,9.0,29.0,72,0.00,,,0.00,Wunderground v.1.15,2013-02-09 13:20:00,
2013-02-09 08:30:00,25.5,17.4,30.26,WSW,238,11.0,11.0,71,0.00,,,0.00,Wunderground v.1.15,2013-02-09 13:30:00,
2013-02-09 08:40:00,25.5,17.4,30.26,WNW,295,10.0,10.0,71,0.00,,,0.00,Wunderground v.1.15,2013-02-09 13:40:00,
2013-02-09 08:50:00,25.5,17.4,30.26,SSW,204,9.0,9.0,71,0.00,,,0.00,Wunderground v.1.15,2013-02-09 13:50:00,
2013-02-09 09:00:00,25.6,17.5,30.27,NNW,332,8.0,14.0,71,0.00,,,0.00,Wunderground v.1.15,2013-02-09 14:00:00,
2013-02-09 09:05:00,25.6,17.5,30.27,WNW,287,8.0,14.0,71,0.00,,,0.00,Wunderground v.1.15,2013-02-09 14:05:00,
2013-02-09 09:15:00,25.9,18.1,30.28,SE,143,6.0,8.0,72,0.00,,,0.00,Wunderground v.1.15,2013-02-09 14:15:00,
2013-02-09 09:25:00,26.6,18.8,30.28,South,187,3.0,8.0,72,0.00,,,0.00,Wunderground v.1.15,2013-02-09 14:25:00,
2013-02-09 09:30:00,27.0,18.5,30.28,East,83,6.0,6.0,70,0.00,,,0.00,Wunderground v.1.15,2013-02-09 14:30:00,
2013-02-09 09:40:00,27.7,18.8,30.29,ESE,109,5.0,5.0,69,0.00,,,0.00,Wunderground v.1.15,2013-02-09 14:40:00,
2013-02-09 09:50:00,28.4,19.9,30.29,SW,233,4.0,4.0,70,0.00,,,0.00,Wunderground v.1.15,2013-02-09 14:50:00,
2013-02-09 09:55:00,29.0,20.8,30.29,NE,41,3.0,4.0,71,0.00,,,0.00,Wunderground v.1.15,2013-02-09 14:55:00,
2013-02-09 10:05:00,29.4,20.1,30.29,ESE,120,4.0,4.0,68,0.00,,,0.00,Wunderground v.1.15,2013-02-09 15:05:00,
2013-02-09 10:15:00,29.7,20.1,30.29,SE,143,4.0,5.0,67,0.00,,,0.00,Wunderground v.1.15,2013-02-09 15:15:00,
2013-02-09 10:25:00,30.6,21.3,30.29,SSW,194,6.0,6.0,68,0.00,,,0.00,Wunderground v.1.15,2013-02-09 15:25:00,
2013-02-09 10:35:00,31.2,20.4,30.29,WSW,247,5.0,6.0,64,0.00,,,0.00,Wunderground v.1.15,2013-02-09 15:35:00,
2013-02-09 10:45:00,31.7,21.6,30.29,East,86,3.0,5.0,66,0.00,,,0.00,Wunderground v.1.15,2013-02-09 15:45:00,
2013-02-09 10:50:00,31.9,21.1,30.29,West,262,3.0,3.0,64,0.00,,,0.00,Wunderground v.1.15,2013-02-09 15:50:00,
2013-02-09 11:00:00,30.9,19.8,30.30,WSW,240,8.0,8.0,63,0.00,,,0.00,Wunderground v.1.15,2013-02-09 16:00:00,
2013-02-09 11:05:00,30.6,19.9,30.29,SW,221,9.0,9.0,64,0.00,,,0.00,Wunderground v.1.15,2013-02-09 16:05:00,
2013-02-09 11:15:00,31.2,20.4,30.30,West,278,7.0,13.0,64,0.00,,,0.00,Wunderground v.1.15,2013-02-09 16:15:00,
2013-02-09 11:20:00,31.2,19.7,30.30,NE,45,7.0,7.0,62,0.00,,,0.00,Wunderground v.1.15,2013-02-09 16:20:00,
2013-02-09 11:30:00,31.8,20.3,30.30,NE,43,7.0,7.0,62,0.00,,,0.00,Wunderground v.1.15,2013-02-09 16:30:00,
2013-02-09 11:40:00,31.4,19.1,30.29,WNW,292,8.0,17.0,60,0.00,,,0.00,Wunderground v.1.15,2013-02-09 16:40:00,
2013-02-09 11:50:00,32.3,20.0,30.29,South,191,8.0,9.0,60,0.00,,,0.00,Wunderground v.1.15,2013-02-09 16:50:00,
2013-02-09 12:00:00,32.6,19.8,30.29,North,4,7.0,9.0,59,0.00,,,0.00,Wunderground v.1.15,2013-02-09 17:00:00,
2013-02-09 12:05:00,32.7,19.9,30.29,SSW,202,9.0,10.0,59,0.00,,,0.00,Wunderground v.1.15,2013-02-09 17:05:00,
2013-02-09 12:15:00,33.0,20.2,30.28,SW,224,7.0,12.0,59,0.00,,,0.00,Wunderground v.1.15,2013-02-09 17:15:00,
2013-02-09 12:25:00,33.4,20.2,30.29,WSW,254,8.0,16.0,58,0.00,,,0.00,Wunderground v.1.15,2013-02-09 17:25:00,
2013-02-09 12:35:00,33.7,19.7,30.28,SW,222,7.0,8.0,56,0.00,,,0.00,Wunderground v.1.15,2013-02-09 17:35:00,
2013-02-09 12:45:00,33.5,19.5,30.28,WNW,288,10.0,21.0,56,0.00,,,0.00,Wunderground v.1.15,2013-02-09 17:45:00,
2013-02-09 12:55:00,33.5,19.5,30.28,NNE,25,11.0,12.0,56,0.00,,,0.00,Wunderground v.1.15,2013-02-09 17:55:00,
2013-02-09 13:05:00,33.9,19.4,30.29,WSW,250,9.0,12.0,55,0.00,,,0.00,Wunderground v.1.15,2013-02-09 18:05:00,
2013-02-09 13:15:00,34.0,19.1,30.28,South,191,9.0,10.0,54,0.00,,,0.00,Wunderground v.1.15,2013-02-09 18:15:00,
2013-02-09 13:25:00,34.8,18.5,30.29,SE,145,8.0,8.0,51,0.00,,,0.00,Wunderground v.1.15,2013-02-09 18:25:00,
2013-02-09 13:35:00,35.4,19.5,30.29,NNW,347,7.0,7.0,52,0.00,,,0.00,Wunderground v.1.15,2013-02-09 18:35:00,
2013-02-09 13:45:00,35.9,19.5,30.28,SW,223,8.0,9.0,51,0.00,,,0.00,Wunderground v.1.15,2013-02-09 18:45:00,
2013-02-09 13:55:00,36.9,20.4,30.28,SSE,152,5.0,6.0,51,0.00,,,0.00,Wunderground v.1.15,2013-02-09 18:55:00,
2013-02-09 14:05:00,37.1,19.7,30.28,WSW,241,5.0,12.0,49,0.00,,,0.00,Wunderground v.1.15,2013-02-09 19:05:00,
2013-02-09 14:15:00,36.1,18.3,30.28,NNE,32,9.0,18.0,48,0.00,,,0.00,Wunderground v.1.15,2013-02-09 19:15:00,
2013-02-09 14:25:00,37.1,19.2,30.27,South,189,5.0,6.0,48,0.00,,,0.00,Wunderground v.1.15,2013-02-09 19:25:00,
2013-02-09 14:30:00,37.0,19.6,30.28,South,177,7.0,7.0,49,0.00,,,0.00,Wunderground v.1.15,2013-02-09 19:30:00,
2013-02-09 14:40:00,37.3,18.4,30.27,WSW,245,6.0,6.0,46,0.00,,,0.00,Wunderground v.1.15,2013-02-09 19:40:00,
2013-02-09 14:50:00,38.7,19.7,30.28,East,85,5.0,8.0,46,0.00,,,0.00,Wunderground v.1.15,2013-02-09 19:50:00,
2013-02-09 14:55:00,39.5,19.4,30.27,NNE,26,4.0,12.0,44,0.00,,,0.00,Wunderground v.1.15,2013-02-09 19:55:00,
2013-02-09 15:05:00,38.4,19.4,30.27,SSW,212,5.0,6.0,46,0.00,,,0.00,Wunderground v.1.15,2013-02-09 20:05:00,
2013-02-09 15:15:00,39.4,18.7,30.27,North,359,5.0,6.0,43,0.00,,,0.01,Wunderground v.1.15,2013-02-09 20:15:00,
2013-02-09 15:25:00,39.3,20.7,30.28,WSW,237,4.0,4.0,47,0.00,,,0.01,Wunderground v.1.15,2013-02-09 20:25:00,
2013-02-09 15:35:00,38.9,18.3,30.28,West,278,3.0,8.0,43,0.00,,,0.01,Wunderground v.1.15,2013-02-09 20:35:00,
2013-02-09 15:45:00,39.8,19.1,30.30,North,354,3.0,6.0,43,0.00,,,0.01,Wunderground v.1.15,2013-02-09 20:45:00,
2013-02-09 15:50:00,39.6,18.4,30.30,SSW,210,3.0,3.0,42,0.00,,,0.01,Wunderground v.1.15,2013-02-09 20:50:00,
2013-02-09 16:00:00,40.1,18.8,30.31,East,97,3.0,3.0,42,0.00,,,0.01,Wunderground v.1.15,2013-02-09 21:00:00,
2013-02-09 16:05:00,41.0,18.5,30.30,ENE,73,3.0,5.0,40,0.00,,,0.01,Wunderground v.1.15,2013-02-09 21:05:00,
2013-02-09 16:15:00,40.7,18.2,30.31,ESE,112,2.0,3.0,40,0.00,,,0.01,Wunderground v.1.15,2013-02-09 21:15:00,
2013-02-09 16:20:00,40.0,18.2,30.31,SSW,201,2.0,2.0,41,0.00,,,0.01,Wunderground v.1.15,2013-02-09 21:20:00,
2013-02-09 16:30:00,39.6,17.2,30.31,SSW,210,2.0,5.0,40,0.00,,,0.01,Wunderground v.1.15,2013-02-09 21:30:00,
2013-02-09 16:40:00,39.5,18.8,30.31,SW,235,2.0,7.0,43,0.00,,,0.01,Wunderground v.1.15,2013-02-09 21:40:00,
2013-02-09 16:45:00,39.3,19.2,30.31,NNE,20,2.0,7.0,44,0.00,,,0.01,Wunderground v.1.15,2013-02-09 21:45:00,
2013-02-09 16:55:00,37.8,17.8,30.32,WSW,237,2.0,3.0,44,0.00,,,0.01,Wunderground v.1.15,2013-02-09 21:55:00,
2013-02-09 17:05:00,35.5,17.2,30.32,West,268,5.0,6.0,47,0.00,,,0.01,Wunderground v.1.15,2013-02-09 22:05:00,
2013-02-09 17:15:00,34.7,17.5,30.32,NW,314,4.0,6.0,49,0.00,,,0.01,Wunderground v.1.15,2013-02-09 22:15:00,
2013-02-09 17:20:00,34.5,17.8,30.33,SW,222,2.0,3.0,50,0.00,,,0.01,Wunderground v.1.15,2013-02-09 22:20:00,
2013-02-09 17:30:00,33.9,17.2,30.32,SW,218,2.0,3.0,50,0.00,,,0.01,Wunderground v.1.15,2013-02-09 22:30:00,
2013-02-09 17:35:00,33.8,17.1,30.33,NW,322,3.0,5.0,50,0.00,,,0.01,Wunderground v.1.15,2013-02-09 22:35:00,
2013-02-09 17:40:00,33.5,18.6,30.33,SW,233,3.0,5.0,54,0.00,,,0.01,Wunderground v.1.15,2013-02-09 22:40:00,
2013-02-09 17:50:00,33.1,17.4,30.33,WNW,301,1.0,2.0,52,0.00,,,0.01,Wunderground v.1.15,2013-02-09 22:50:00,
2013-02-09 18:00:00,32.5,18.9,30.34,WSW,246,2.0,2.0,57,0.00,,,0.01,Wunderground v.1.15,2013-02-09 23:00:00,
2013-02-09 18:05:00,32.3,18.8,30.34,West,272,2.0,2.0,57,0.00,,,0.01,Wunderground v.1.15,2013-02-09 23:05:00,
2013-02-09 18:15:00,32.0,18.9,30.34,SSW,209,2.0,2.0,58,0.00,,,0.01,Wunderground v.1.15,2013-02-09 23:15:00,
2013-02-09 18:25:00,31.6,18.1,30.34,South,190,1.0,1.0,57,0.00,,,0.01,Wunderground v.1.15,2013-02-09 23:25:00,
2013-02-09 18:35:00,31.2,18.5,30.34,West,270,1.0,1.0,59,0.00,,,0.01,Wunderground v.1.15,2013-02-09 23:35:00,
2013-02-09 18:45:00,31.0,18.3,30.34,ESE,114,1.0,1.0,59,0.00,,,0.01,Wunderground v.1.15,2013-02-09 23:45:00,
2013-02-09 18:55:00,30.7,18.1,30.34,NW,312,1.0,4.0,59,0.00,,,0.01,Wunderground v.1.15,2013-02-09 23:55:00,
2013-02-09 19:05:00,30.8,18.1,30.34,SW,214,2.0,2.0,59,0.00,,,0.01,Wunderground v.1.15,2013-02-10 00:05:00,
2013-02-09 19:15:00,30.9,17.8,30.34,ENE,58,2.0,3.0,58,0.00,,,0.01,Wunderground v.1.15,2013-02-10 00:15:00,
2013-02-09 19:25:00,31.1,17.6,30.34,NW,319,2.0,7.0,57,0.00,,,0.01,Wunderground v.1.15,2013-02-10 00:25:00,
2013-02-09 19:30:00,30.9,17.8,30.34,West,271,1.0,1.0,58,0.00,,,0.01,Wunderground v.1.15,2013-02-10 00:30:00,
2013-02-09 19:40:00,30.3,17.7,30.34,North,350,1.0,2.0,59,0.00,,,0.01,Wunderground v.1.15,2013-02-10 00:40:00,
2013-02-09 19:50:00,30.2,17.6,30.34,West,268,1.0,1.0,59,0.00,,,0.01,Wunderground v.1.15,2013-02-10 00:50:00,
2013-02-09 20:00:00,30.2,17.2,30.34,West,260,2.0,2.0,58,0.00,,,0.01,Wunderground v.1.15,2013-02-10 01:00:00,
2013-02-09 20:05:00,30.3,17.7,30.35,SW,236,2.0,6.0,59,0.00,,,0.01,Wunderground v.1.15,2013-02-10 01:05:00,
2013-02-09 20:15:00,30.3,16.9,30.35,WSW,247,2.0,2.0,57,0.00,,,0.01,Wunderground v.1.15,2013-02-10 01:15:00,
2013-02-09 20:25:00,30.1,16.7,30.35,West,262,1.0,1.0,57,0.00,,,0.01,Wunderground v.1.15,2013-02-10 01:25:00,
2013-02-09 20:35:00,29.9,17.3,30.35,West,263,1.0,2.0,59,0.00,,,0.01,Wunderground v.1.15,2013-02-10 01:35:00,
2013-02-09 20:45:00,29.6,17.8,30.36,West,264,0.0,2.0,61,0.00,,,0.01,Wunderground v.1.15,2013-02-10 01:45:00,
2013-02-09 20:50:00,29.5,17.3,30.36,West,275,1.0,1.0,60,0.00,,,0.01,Wunderground v.1.15,2013-02-10 01:50:00,
2013-02-09 21:00:00,30.2,17.6,30.36,NW,308,4.0,4.0,59,0.00,,,0.01,Wunderground v.1.15,2013-02-10 02:00:00,
2013-02-09 21:05:00,30.2,18.4,30.36,West,259,2.0,4.0,61,0.00,,,0.01,Wunderground v.1.15,2013-02-10 02:05:00,
2013-02-09 21:15:00,29.6,18.2,30.35,ESE,118,0.0,1.0,62,0.00,,,0.01,Wunderground v.1.15,2013-02-10 02:15:00,
2013-02-09 21:20:00,29.3,17.9,30.35,SE,137,1.0,1.0,62,0.00,,,0.01,Wunderground v.1.15,2013-02-10 02:20:00,
2013-02-09 21:30:00,28.7,18.1,30.36,WSW,258,1.0,2.0,64,0.00,,,0.01,Wunderground v.1.15,2013-02-10 02:30:00,
2013-02-09 21:40:00,28.1,17.5,30.36,NW,326,2.0,3.0,64,0.00,,,0.01,Wunderground v.1.15,2013-02-10 02:40:00,
2013-02-09 21:50:00,28.6,18.0,30.36,SW,224,3.0,5.0,64,0.00,,,0.01,Wunderground v.1.15,2013-02-10 02:50:00,
2013-02-09 22:00:00,28.4,18.1,30.36,NE,45,0.0,2.0,65,0.00,,,0.01,Wunderground v.1.15,2013-02-10 03:00:00,
2013-02-09 22:05:00,27.9,17.6,30.36,NE,41,1.0,2.0,65,0.00,,,0.01,Wunderground v.1.15,2013-02-10 03:05:00,
2013-02-09 22:15:00,27.4,17.5,30.36,NE,41,1.0,1.0,66,0.00,,,0.01,Wunderground v.1.15,2013-02-10 03:15:00,
2013-02-09 22:25:00,27.0,18.2,30.37,NE,41,0.0,0.0,69,0.00,,,0.01,Wunderground v.1.15,2013-02-10 03:25:00,
2013-02-09 22:35:00,26.7,16.9,30.36,NE,41,0.0,1.0,66,0.00,,,0.01,Wunderground v.1.15,2013-02-10 03:35:00,
2013-02-09 22:45:00,27.1,17.2,30.37,NE,41,0.0,0.0,66,0.00,,,0.01,Wunderground v.1.15,2013-02-10 03:45:00,
2013-02-09 22:55:00,27.1,17.9,30.37,NE,41,0.0,0.0,68,0.00,,,0.01,Wunderground v.1.15,2013-02-10 03:55:00,
2013-02-09 23:05:00,26.8,17.3,30.38,NE,41,1.0,1.0,67,0.00,,,0.01,Wunderground v.1.15,2013-02-10 04:05:00,
2013-02-09 23:15:00,26.3,17.2,30.37,NE,41,1.0,2.0,68,0.00,,,0.01,Wunderground v.1.15,2013-02-10 04:15:00,
2013-02-09 23:25:00,25.7,17.3,30.37,NE,41,0.0,1.0,70,0.00,,,0.01,Wunderground v.1.15,2013-02-10 04:25:00,
2013-02-09 23:35:00,25.4,17.0,30.37,NE,41,0.0,0.0,70,0.00,,,0.01,Wunderground v.1.15,2013-02-10 04:35:00,
2013-02-09 23:45:00,25.3,17.5,30.37,NE,41,0.0,0.0,72,0.00,,,0.01,Wunderground v.1.15,2013-02-10 04:45:00,
2013-02-09 23:50:00,25.1,17.0,30.37,NE,41,0.0,0.0,71,0.00,,,0.01,Wunderground v.1.15,2013-02-10 04:50:00,